Waverly, Ohio
Current Conditions -  °F | °C
As of 10:14 PM on Friday 21 Nov 2014 (Local Time) from KRZT Reporting Station
Clear Clear  
Wind Chill: 16°   Ceiling: Unl
Heat Index: 16°   Visibility: 10mi
Dew Point: 12°   Wind: 0mph
Humidity: 86%   Direction: NA
Pressure: 30.44"   Gusts: NA
Location:  39.13°N, 82.99°W
Report Text: KRZT 220314Z AUTO 00000KT 10SM CLR M09/M11 A3044 RMK AO2
Loading
Personal Weather Stations






























Interactive Weather Map New forecast layout! Learn more

10-Day Weather Forecast

Advertisements
Track Severe Weather on mobile